Time;durP1;ratioP1;P1;durP2;ratioP2;P2;SDS_P1;SDS_P2;PMS_P1;PMS_P2;Temp;Humidity;BMP_temperature;BMP_pressure;BME280_temperature;BME280_humidity;BME280_pressure;Samples;Min_cycle;Max_cycle;Signal;HPM_P1;HPM_P2
2022/12/02 00:01:59;;;;;;;27.75;8.73;;;;;;;-0.41;80.64;99376.65;1691536;84;25506;-76
2022/12/02 00:04:31;;;;;;;18.52;8.25;;;;;;;-0.44;80.44;99364.14;1692053;84;25703;-76
2022/12/02 00:06:59;;;;;;;14.90;7.25;;;;;;;-0.53;80.42;99363.62;1691993;84;25666;-69
2022/12/02 00:09:32;;;;;;;24.02;10.43;;;;;;;-0.50;80.72;99365.86;1691549;84;27467;-76
2022/12/02 00:12:03;;;;;;;14.83;6.67;;;;;;;-0.49;80.65;99356.73;1691852;84;25792;-76
2022/12/02 00:14:33;;;;;;;19.75;9.28;;;;;;;-0.52;80.53;99366.09;1689999;84;25462;-70
2022/12/02 00:17:00;;;;;;;18.70;7.05;;;;;;;-0.49;80.78;99358.08;1691702;84;25751;-71
2022/12/02 00:19:26;;;;;;;21.97;10.08;;;;;;;-0.48;80.37;99358.39;1691559;84;25623;-76
2022/12/02 00:21:53;;;;;;;23.87;9.43;;;;;;;-0.55;80.39;99351.72;1691986;84;27421;-75
2022/12/02 00:24:20;;;;;;;18.30;7.80;;;;;;;-0.54;80.54;99364.16;1691415;84;25711;-76
2022/12/02 00:26:46;;;;;;;16.73;6.80;;;;;;;-0.53;80.52;99361.76;1691530;84;25680;-72
2022/12/02 00:29:13;;;;;;;14.18;6.65;;;;;;;-0.50;80.61;99357.79;1691460;84;25759;-75
2022/12/02 00:31:40;;;;;;;21.40;9.43;;;;;;;-0.53;80.50;99365.80;1691678;84;25455;-76
2022/12/02 00:34:07;;;;;;;17.60;8.00;;;;;;;-0.55;80.82;99363.84;1691615;84;28567;-75
2022/12/02 00:36:33;;;;;;;15.28;7.65;;;;;;;-0.53;80.81;99362.27;1691645;84;25634;-74
2022/12/02 00:39:00;;;;;;;15.18;7.17;;;;;;;-0.52;80.77;99363.91;1691695;84;25682;-69
2022/12/02 00:41:27;;;;;;;21.30;8.75;;;;;;;-0.52;80.78;99358.01;1691633;84;25759;-69
2022/12/02 00:46:38;;;;;;;8.95;4.80;;;;;;;-0.47;80.70;99351.95;1686266;85;27480;-75
2022/12/02 00:49:13;;;;;;;15.25;6.15;;;;;;;-0.53;80.71;99355.03;1686108;85;25644;-75
2022/12/02 00:51:42;;;;;;;19.25;8.38;;;;;;;-0.57;80.83;99356.52;1686532;85;25744;-75
2022/12/02 00:54:10;;;;;;;18.62;8.70;;;;;;;-0.54;81.02;99357.43;1686504;85;26168;-71
2022/12/02 00:56:37;;;;;;;20.40;9.90;;;;;;;-0.53;80.87;99350.16;1686659;85;25653;-75
2022/12/02 00:59:05;;;;;;;22.10;10.05;;;;;;;-0.47;80.94;99355.16;1686215;85;27402;-75
2022/12/02 01:01:33;;;;;;;16.50;7.17;;;;;;;-0.46;81.00;99354.13;1686462;85;25708;-72
2022/12/02 01:03:59;;;;;;;11.85;6.12;;;;;;;-0.50;80.91;99348.36;1686498;85;25715;-75
2022/12/02 01:06:26;;;;;;;15.35;7.17;;;;;;;-0.52;81.03;99350.45;1686183;85;25697;-72
2022/12/02 01:08:52;;;;;;;20.02;9.18;;;;;;;-0.54;81.02;99352.55;1686395;85;25777;-71
2022/12/02 01:11:19;;;;;;;16.10;7.42;;;;;;;-0.53;81.16;99344.26;1686545;85;27401;-70
2022/12/02 01:13:46;;;;;;;15.35;7.40;;;;;;;-0.55;81.17;99342.30;1686129;84;25487;-76
2022/12/02 01:16:12;;;;;;;20.88;7.90;;;;;;;-0.53;81.24;99346.12;1686199;85;25683;-76
2022/12/02 01:18:39;;;;;;;19.30;9.80;;;;;;;-0.49;81.22;99347.30;1686169;85;25781;-73
2022/12/02 01:21:05;;;;;;;14.10;7.10;;;;;;;-0.50;81.02;99340.28;1686241;85;25604;-75
2022/12/02 01:23:32;;;;;;;18.42;8.40;;;;;;;-0.53;81.21;99338.87;1686131;85;27472;-76
2022/12/02 01:25:59;;;;;;;18.67;7.83;;;;;;;-0.51;81.24;99346.19;1686295;85;25739;-72
2022/12/02 01:28:25;;;;;;;20.00;10.23;;;;;;;-0.49;81.23;99342.47;1686472;85;25482;-74
2022/12/02 01:30:52;;;;;;;19.15;9.50;;;;;;;-0.45;81.35;99350.39;1686429;85;25712;-74
2022/12/02 01:33:18;;;;;;;22.60;8.55;;;;;;;-0.42;81.04;99344.04;1686165;85;25684;-74
2022/12/02 01:35:45;;;;;;;18.32;9.03;;;;;;;-0.47;81.08;99343.88;1686542;85;27392;-75
2022/12/02 01:38:12;;;;;;;13.08;6.65;;;;;;;-0.49;81.27;99340.58;1686346;85;25625;-75
2022/12/02 01:40:38;;;;;;;15.05;6.62;;;;;;;-0.52;81.33;99341.02;1686124;85;25664;-75
2022/12/02 01:43:05;;;;;;;14.68;5.55;;;;;;;-0.56;81.35;99341.17;1686600;85;26303;-73
2022/12/02 01:45:31;;;;;;;13.50;6.25;;;;;;;-0.58;81.45;99342.75;1684759;85;25750;-74
2022/12/02 01:48:03;;;;;;;12.18;5.78;;;;;;;-0.60;81.55;99339.47;1684161;85;27483;-74
2022/12/02 01:50:31;;;;;;;20.62;9.23;;;;;;;-0.56;81.65;99342.52;1684129;85;25676;-74
2022/12/02 01:52:57;;;;;;;20.10;8.83;;;;;;;-0.60;81.63;99338.13;1684121;85;25709;-74
2022/12/02 01:55:26;;;;;;;13.30;6.92;;;;;;;-0.57;81.90;99337.68;1684478;85;25716;-69
2022/12/02 01:57:53;;;;;;;18.62;9.18;;;;;;;-0.57;81.79;99341.72;1684521;85;25719;-73
2022/12/02 02:00:20;;;;;;;17.73;7.72;;;;;;;-0.54;81.75;99340.44;1684581;85;27432;-76
2022/12/02 02:02:46;;;;;;;16.42;7.67;;;;;;;-0.53;81.76;99345.61;1684118;85;25498;-78
2022/12/02 02:05:18;;;;;;;12.20;6.15;;;;;;;-0.52;81.65;99336.98;1684708;85;25546;-72
2022/12/02 02:07:48;;;;;;;17.00;7.95;;;;;;;-0.58;81.76;99333.86;1684114;85;27819;-68
2022/12/02 02:10:15;;;;;;;19.00;8.85;;;;;;;-0.61;81.87;99337.00;1684762;85;25696;-78
2022/12/02 02:12:43;;;;;;;17.80;9.25;;;;;;;-0.62;81.89;99325.91;1664969;85;27403;-71
2022/12/02 02:15:12;;;;;;;19.30;8.73;;;;;;;-0.61;81.94;99319.50;1684097;85;25636;-78
2022/12/02 02:17:39;;;;;;;22.58;9.10;;;;;;;-0.60;81.98;99314.41;1684562;85;25475;-76
2022/12/02 02:20:11;;;;;;;19.17;8.48;;;;;;;-0.59;81.91;99318.73;1684548;84;25730;-76
2022/12/02 02:23:02;;;;;;;14.53;6.92;;;;;;;-0.57;81.92;99323.39;1684610;85;25735;-77
2022/12/02 02:25:28;;;;;;;;;;;;;;;-0.54;81.93;99320.25;1686674;85;29509;-74
2022/12/02 02:27:58;;;;;;;22.20;9.80;;;;;;;-0.54;82.00;99318.90;1684422;85;25583;-78
2022/12/02 02:30:31;;;;;;;14.13;7.08;;;;;;;-0.62;82.21;99312.45;1684450;85;25476;-75
2022/12/02 02:33:00;;;;;;;11.88;5.80;;;;;;;-0.70;82.41;99312.22;1684148;85;27844;-77
2022/12/02 02:35:27;;;;;;;20.97;10.13;;;;;;;-0.71;82.64;99318.66;1684630;85;25456;-77
2022/12/02 02:37:55;;;;;;;17.57;8.38;;;;;;;-0.75;82.63;99311.54;1684145;85;29634;-79
2022/12/02 02:40:25;;;;;;;19.00;9.20;;;;;;;-0.77;82.77;99313.11;1684738;85;25622;-77
2022/12/02 02:42:56;;;;;;;19.52;9.40;;;;;;;-0.74;82.71;99304.30;1684581;85;25695;-78
2022/12/02 02:45:26;;;;;;;14.63;8.30;;;;;;;-0.69;82.71;99307.95;1683848;84;25913;-77
2022/12/02 02:47:55;;;;;;;12.40;6.00;;;;;;;-0.73;82.70;99296.52;1684710;85;25601;-75
2022/12/02 02:50:23;;;;;;;11.60;5.70;;;;;;;-0.76;82.81;99287.86;1684485;85;28179;-78
2022/12/02 02:52:51;;;;;;;12.53;6.00;;;;;;;-0.74;82.76;99297.56;1684102;85;25691;-68
2022/12/02 02:55:22;;;;;;;16.62;7.87;;;;;;;-0.79;82.82;99298.23;1684614;85;25701;-77
2022/12/02 02:57:50;;;;;;;16.75;8.20;;;;;;;-0.79;82.66;99302.27;1684728;85;25708;-77
2022/12/02 03:00:19;;;;;;;21.37;8.10;;;;;;;-0.81;82.73;99295.77;1684175;85;25631;-77
2022/12/02 03:02:50;;;;;;;14.55;6.20;;;;;;;-0.80;82.74;99283.95;1684434;84;28174;-77
2022/12/02 03:05:18;;;;;;;15.38;6.03;;;;;;;-0.78;82.74;99292.63;1684653;85;25658;-78
2022/12/02 03:07:45;;;;;;;16.80;7.05;;;;;;;-0.80;82.87;99293.91;1684167;85;25452;-71
2022/12/02 03:10:13;;;;;;;17.67;7.17;;;;;;;-0.78;83.00;99296.67;1684329;85;25779;-77
2022/12/02 03:12:41;;;;;;;18.65;8.75;;;;;;;-0.76;83.06;99290.55;1684638;85;25443;-70
2022/12/02 03:15:09;;;;;;;9.03;4.62;;;;;;;-0.79;83.25;99286.95;1684512;85;27480;-76
2022/12/02 03:17:36;;;;;;;18.92;7.95;;;;;;;-0.78;83.27;99286.41;1684458;84;25802;-78
2022/12/02 03:20:05;;;;;;;17.70;7.78;;;;;;;-0.79;83.31;99290.16;1684332;85;25903;-69
2022/12/02 03:22:32;;;;;;;16.65;7.87;;;;;;;-0.84;83.21;99293.52;1684644;85;26396;-78
2022/12/02 03:24:59;;;;;;;16.97;8.43;;;;;;;-0.85;83.34;99288.36;1684200;85;25659;-79
2022/12/02 03:27:25;;;;;;;17.42;7.72;;;;;;;-0.82;83.22;99292.78;1684510;85;27408;-69
2022/12/02 03:29:52;;;;;;;12.18;6.12;;;;;;;-0.80;83.04;99286.64;1664686;85;25643;-79
2022/12/02 03:32:19;;;;;;;15.25;7.20;;;;;;;-0.86;82.81;99291.59;1684376;85;25743;-79
2022/12/02 03:34:46;;;;;;;7.58;4.08;;;;;;;-0.91;82.63;99290.91;1684519;85;25779;-78
2022/12/02 03:37:13;;;;;;;13.48;7.40;;;;;;;-0.95;82.42;99291.58;1684350;85;25684;-75
2022/12/02 03:39:39;;;;;;;12.58;6.28;;;;;;;-1.04;82.48;99287.81;1684152;85;27498;-79
2022/12/02 03:42:06;;;;;;;18.77;7.85;;;;;;;-0.98;82.40;99295.52;1684310;85;25747;-75
2022/12/02 03:44:33;;;;;;;14.07;5.83;;;;;;;-0.94;82.33;99299.94;1683947;85;25778;-68
2022/12/02 03:47:01;;;;;;;13.28;5.58;;;;;;;-0.97;82.16;99282.38;1684113;85;25816;-79
2022/12/02 03:49:28;;;;;;;13.08;5.83;;;;;;;-0.97;82.38;99290.97;1684392;85;25585;-79
2022/12/02 03:51:54;;;;;;;13.30;6.03;;;;;;;-1.01;82.44;99284.68;1684376;85;27516;-78
2022/12/02 03:54:21;;;;;;;15.35;6.35;;;;;;;-1.00;82.37;99286.86;1664899;85;25730;-79
2022/12/02 03:56:47;;;;;;;15.30;7.00;;;;;;;-1.01;82.47;99289.23;1684360;85;25736;-68
2022/12/02 03:59:24;;;;;;;12.37;5.37;;;;;;;-1.01;82.64;99285.19;1684007;85;25749;-80
2022/12/02 04:01:51;;;;;;;12.37;5.33;;;;;;;-1.01;82.67;99286.02;1684165;85;25701;-79
2022/12/02 04:04:17;;;;;;;16.12;6.80;;;;;;;-0.99;82.66;99283.63;1684050;85;27425;-79
2022/12/02 04:06:44;;;;;;;19.45;8.60;;;;;;;-1.02;82.60;99282.21;1684032;84;25648;-79
2022/12/02 04:09:10;;;;;;;9.40;4.65;;;;;;;-0.98;82.88;99285.30;1684107;85;25408;-80
2022/12/02 04:11:37;;;;;;;16.62;7.75;;;;;;;-0.99;82.66;99289.84;1684113;85;25706;-73
2022/12/02 04:14:09;;;;;;;17.35;7.45;;;;;;;-1.00;82.71;99290.89;1684040;85;25613;-76
2022/12/02 04:16:35;;;;;;;14.15;7.50;;;;;;;-1.04;82.62;99298.58;1684460;85;28289;-79
2022/12/02 04:19:01;;;;;;;20.97;8.15;;;;;;;-1.07;82.82;99291.48;1684035;85;25628;-79
2022/12/02 04:21:28;;;;;;;10.30;5.33;;;;;;;-1.05;82.89;99291.55;1664753;85;25964;-72
2022/12/02 04:23:54;;;;;;;17.57;7.42;;;;;;;-1.08;82.48;99286.62;1663657;84;25682;-80
2022/12/02 04:26:21;;;;;;;12.15;5.33;;;;;;;-1.12;82.60;99293.49;1667462;85;25442;-74
2022/12/02 04:28:47;;;;;;;18.32;8.48;;;;;;;-1.11;82.77;99293.78;1660678;85;27409;-81
2022/12/02 04:31:13;;;;;;;15.05;7.15;;;;;;;-1.12;82.72;99288.62;1668777;84;25572;-82
2022/12/02 04:33:40;;;;;;;15.90;7.53;;;;;;;-1.19;82.68;99285.98;1639744;85;25549;-70
2022/12/02 04:36:07;;;;;;;14.73;7.10;;;;;;;-1.20;82.83;99285.69;1666207;85;26255;-73
2022/12/02 04:38:33;;;;;;;14.87;6.90;;;;;;;-1.16;83.04;99290.92;1665377;85;25727;-78
2022/12/02 04:40:59;;;;;;;13.00;6.22;;;;;;;-1.10;82.97;99287.34;1663711;85;27588;-78
2022/12/02 04:43:26;;;;;;;12.05;4.20;;;;;;;-1.10;82.69;99280.62;1667617;85;25435;-75
2022/12/02 04:45:52;;;;;;;23.62;10.03;;;;;;;-1.14;82.89;99286.98;1663343;85;25711;-78
2022/12/02 04:48:19;;;;;;;18.87;9.75;;;;;;;-1.19;82.68;99288.16;1652151;85;25841;-80
2022/12/02 04:50:46;;;;;;;18.50;9.35;;;;;;;-1.28;82.70;99282.75;1663408;85;25660;-77
2022/12/02 04:53:12;;;;;;;15.75;7.03;;;;;;;-1.35;83.14;99288.72;1659449;85;27555;-76
2022/12/02 04:55:39;;;;;;;9.98;4.78;;;;;;;-1.35;83.07;99284.17;1688524;85;25674;-77
2022/12/02 04:58:05;;;;;;;8.88;4.85;;;;;;;-1.35;83.23;99282.83;1688855;85;25466;-77
2022/12/02 05:00:31;;;;;;;11.55;5.92;;;;;;;-1.37;82.89;99284.06;1688915;85;26273;-75
2022/12/02 05:02:58;;;;;;;13.78;6.90;;;;;;;-1.37;82.95;99284.06;1688755;85;25664;-77
2022/12/02 05:05:24;;;;;;;9.73;5.12;;;;;;;-1.39;82.96;99281.59;1688702;85;27302;-78
2022/12/02 05:07:50;;;;;;;23.67;11.22;;;;;;;-1.42;83.00;99281.52;1688329;85;25687;-78
2022/12/02 05:10:17;;;;;;;11.95;5.60;;;;;;;-1.42;83.08;99278.00;1681855;85;25726;-75
2022/12/02 05:12:44;;;;;;;35.80;14.30;;;;;;;-1.41;83.04;99277.78;1685044;85;25712;-70
2022/12/02 05:15:10;;;;;;;42.25;21.52;;;;;;;-1.40;83.10;99278.10;1688772;84;25426;-77
2022/12/02 05:17:37;;;;;;;18.42;9.78;;;;;;;-1.40;83.11;99275.41;1688965;85;27391;-79
2022/12/02 05:20:05;;;;;;;13.50;6.42;;;;;;;-1.37;83.15;99273.31;1688373;85;25830;-78
2022/12/02 05:22:31;;;;;;;10.23;5.08;;;;;;;-1.37;83.16;99274.14;1688479;84;25465;-70
2022/12/02 05:24:58;;;;;;;11.33;5.90;;;;;;;-1.40;83.25;99285.34;1688552;85;25751;-76
2022/12/02 05:27:24;;;;;;;14.98;7.62;;;;;;;-1.48;82.99;99282.91;1688745;85;25669;-77
2022/12/02 05:29:50;;;;;;;11.97;5.28;;;;;;;-1.51;83.19;99280.14;1688575;85;27416;-75
2022/12/02 05:32:17;;;;;;;10.03;5.40;;;;;;;-1.55;83.57;99279.74;1688665;85;25513;-75
2022/12/02 05:34:43;;;;;;;11.43;5.42;;;;;;;-1.54;83.53;99286.79;1688940;85;25708;-73
2022/12/02 05:37:09;;;;;;;14.38;6.58;;;;;;;-1.53;83.58;99292.97;1688985;85;25612;-77
2022/12/02 05:39:36;;;;;;;14.43;6.12;;;;;;;-1.48;83.69;99289.12;1688619;85;25699;-79
2022/12/02 05:42:06;;;;;;;17.73;7.95;;;;;;;-1.47;83.47;99282.69;1688831;85;28047;-72
2022/12/02 05:44:34;;;;;;;17.25;6.25;;;;;;;-1.48;83.58;99285.08;1689050;85;25738;-76
2022/12/02 05:47:08;;;;;;;13.40;6.55;;;;;;;-1.47;83.79;99285.37;1684575;85;25654;-75
2022/12/02 05:49:37;;;;;;;12.40;5.95;;;;;;;-1.46;83.75;99285.70;1684329;85;25695;-77
2022/12/02 05:52:26;;;;;;;17.15;8.53;;;;;;;-1.45;83.71;99282.47;1684430;85;25704;-74
2022/12/02 05:55:01;;;;;;;14.15;6.95;;;;;;;-1.47;83.79;99289.95;1684404;85;28350;-68
2022/12/02 05:57:28;;;;;;;11.15;4.85;;;;;;;-1.49;84.06;99289.34;1682465;85;25826;-72
2022/12/02 06:00:09;;;;;;;15.30;6.37;;;;;;;-1.49;84.10;99284.80;1684632;85;25655;-76
2022/12/02 06:02:40;;;;;;;15.00;7.05;;;;;;;-1.49;84.14;99288.83;1684233;85;34598;-76
2022/12/02 06:05:22;;;;;;;13.45;6.55;;;;;;;-1.48;84.08;99280.22;1684247;85;25595;-76
2022/12/02 06:07:53;;;;;;;17.37;7.55;;;;;;;-1.46;84.23;99291.59;1684510;85;27413;-75
2022/12/02 06:10:30;;;;;;;10.03;4.90;;;;;;;-1.44;84.07;99288.97;1683471;85;25506;-78
2022/12/02 06:13:07;;;;;;;13.40;5.33;;;;;;;-1.46;83.97;99286.21;1683510;85;25446;-77
2022/12/02 06:15:38;;;;;;;14.23;6.83;;;;;;;-1.46;84.16;99285.70;1683999;84;25750;-77
2022/12/02 06:18:14;;;;;;;16.25;7.00;;;;;;;-1.46;84.09;99300.48;1684643;85;25663;-68
2022/12/02 06:20:42;;;;;;;12.33;5.55;;;;;;;-1.49;83.98;99285.30;1684210;85;28506;-76
2022/12/02 06:23:14;;;;;;;19.42;8.50;;;;;;;-1.47;84.20;99288.61;1683988;85;25873;-76
2022/12/02 06:25:40;;;;;;;39.53;14.95;;;;;;;-1.49;84.13;99286.64;1684291;85;25490;-77
2022/12/02 06:28:33;;;;;;;28.92;11.95;;;;;;;-1.46;84.37;99291.08;1684578;85;26348;-74
2022/12/02 06:31:10;;;;;;;29.37;11.10;;;;;;;-1.45;84.35;99289.19;1684339;85;25711;-76
2022/12/02 06:33:38;;;;;;;37.80;12.07;;;;;;;-1.44;84.33;99294.89;1683968;85;29576;-75
2022/12/02 06:36:13;;;;;;;19.37;8.73;;;;;;;-1.41;84.32;99294.45;1684350;85;25704;-77
2022/12/02 06:38:51;;;;;;;13.88;6.60;;;;;;;-1.43;84.41;99287.95;1684443;85;25499;-76
2022/12/02 06:41:28;;;;;;;27.77;10.70;;;;;;;-1.44;84.63;99286.83;1684486;85;25860;-76
2022/12/02 06:46:46;;;;;;;21.07;8.88;;;;;;;-1.46;84.83;99294.27;1683981;85;25679;-75
2022/12/02 06:49:22;;;;;;;30.02;10.75;;;;;;;-1.42;84.79;99299.00;1684395;85;25704;-78
2022/12/02 06:51:59;;;;;;;27.10;9.68;;;;;;;-1.39;84.68;99299.07;1684542;85;25641;-69
2022/12/02 06:54:36;;;;;;;40.30;11.93;;;;;;;-1.36;84.81;99303.21;1683780;84;25735;-73
2022/12/02 06:57:05;;;;;;;20.12;8.23;;;;;;;-1.37;84.65;99303.72;1684474;85;25616;-77
2022/12/02 06:59:32;;;;;;;25.80;9.48;;;;;;;-1.32;84.62;99300.37;1684254;85;27420;-77
2022/12/02 07:02:02;;;;;;;16.93;6.80;;;;;;;-1.32;84.58;99295.80;1683932;85;25719;-77
2022/12/02 07:04:49;;;;;;;28.67;9.80;;;;;;;-1.34;84.58;99301.11;1684444;85;25441;-77
2022/12/02 07:07:28;;;;;;;29.05;10.70;;;;;;;-1.34;84.84;99303.28;1684003;85;25910;-77
2022/12/02 07:09:59;;;;;;;22.48;9.10;;;;;;;-1.33;84.85;99299.55;1684448;85;25625;-76
2022/12/02 07:12:41;;;;;;;20.52;7.25;;;;;;;-1.35;84.90;99302.16;1684509;85;28098;-77
2022/12/02 07:15:29;;;;;;;46.10;14.07;;;;;;;-1.34;84.89;99312.70;1683927;85;25476;-77
2022/12/02 07:18:20;;;;;;;24.35;9.10;;;;;;;-1.29;84.99;99316.88;1684522;85;25218;-77
2022/12/02 07:20:48;;;;;;;22.32;7.87;;;;;;;-1.29;84.79;99310.70;1684628;85;26473;-77
2022/12/02 07:23:25;;;;;;;26.75;9.30;;;;;;;-1.32;84.89;99305.75;1684379;85;25628;-72
2022/12/02 07:25:54;;;;;;;21.17;8.58;;;;;;;-1.32;84.83;99313.28;1684429;85;28509;-78
2022/12/02 07:28:42;;;;;;;15.38;6.53;;;;;;;-1.32;85.02;99315.17;1684364;85;25629;-78
2022/12/02 07:31:27;;;;;;;11.57;4.80;;;;;;;-1.32;85.04;99314.63;1684076;85;25490;-75
2022/12/02 07:33:54;;;;;;;16.95;6.87;;;;;;;-1.30;84.90;99318.44;1684260;85;26201;-75
2022/12/02 07:36:20;;;;;;;24.70;9.08;;;;;;;-1.29;84.95;99318.77;1684035;85;25603;-79
2022/12/02 07:38:47;;;;;;;21.23;8.10;;;;;;;-1.26;85.03;99319.67;1684127;85;27492;-73
2022/12/02 07:41:13;;;;;;;25.17;10.78;;;;;;;-1.27;85.19;99310.77;1684264;85;25628;-78
2022/12/02 07:43:40;;;;;;;41.73;13.58;;;;;;;-1.26;85.20;99315.09;1684361;85;25664;-74
2022/12/02 07:46:06;;;;;;;46.15;13.22;;;;;;;-1.21;85.18;99321.16;1682392;84;26062;-75
2022/12/02 07:48:33;;;;;;;18.70;7.45;;;;;;;-1.14;85.15;99321.95;1676888;84;25406;-70
2022/12/02 07:51:00;;;;;;;25.43;9.70;;;;;;;-1.11;84.77;99320.69;1676693;85;27341;-78
2022/12/02 07:53:27;;;;;;;28.10;10.30;;;;;;;-1.16;84.81;99321.85;1676451;85;25470;-75
2022/12/02 07:55:53;;;;;;;22.13;9.88;;;;;;;-1.18;84.95;99322.61;1676400;84;25435;-80
2022/12/02 07:58:19;;;;;;;21.77;8.13;;;;;;;-1.12;85.14;99327.11;1676645;85;25724;-76
2022/12/02 08:00:46;;;;;;;9.03;4.53;;;;;;;-1.10;84.82;99323.66;1676359;85;25668;-76
2022/12/02 08:03:12;;;;;;;16.30;8.53;;;;;;;-1.12;84.96;99320.39;1676368;85;27462;-79
2022/12/02 08:05:38;;;;;;;25.15;10.20;;;;;;;-1.13;84.86;99322.76;1676295;85;25629;-76
2022/12/02 08:08:05;;;;;;;20.40;9.03;;;;;;;-1.14;85.05;99315.23;1676360;85;25443;-76
2022/12/02 08:10:31;;;;;;;21.93;9.35;;;;;;;-1.11;85.06;99319.85;1676352;85;25820;-76
2022/12/02 08:12:58;;;;;;;29.37;10.50;;;;;;;-1.09;84.90;99322.64;1676777;85;25652;-80
2022/12/02 08:15:24;;;;;;;20.45;7.72;;;;;;;-1.10;84.95;99318.28;1676853;85;27976;-79
2022/12/02 08:17:50;;;;;;;16.65;6.28;;;;;;;-1.14;85.05;99319.27;1676583;85;25627;-79
2022/12/02 08:20:17;;;;;;;20.85;9.05;;;;;;;-1.24;85.26;99316.22;1676396;85;25691;-81
2022/12/02 08:22:43;;;;;;;26.17;9.50;;;;;;;-1.27;85.54;99322.04;1676686;85;26295;-74
2022/12/02 08:25:10;;;;;;;18.57;6.90;;;;;;;-1.26;85.79;99321.02;1676363;85;25690;-78
2022/12/02 08:27:39;;;;;;;18.32;7.90;;;;;;;-1.25;85.79;99326.69;1676653;85;27490;-81
2022/12/02 08:30:08;;;;;;;26.23;10.45;;;;;;;-1.20;85.69;99322.00;1676271;85;25850;-81
2022/12/02 08:32:35;;;;;;;12.43;6.23;;;;;;;-1.20;85.64;99320.66;1676080;85;25623;-76
2022/12/02 08:35:02;;;;;;;24.60;9.18;;;;;;;-1.21;85.68;99320.36;1676367;85;25765;-81
2022/12/02 08:37:29;;;;;;;22.75;8.48;;;;;;;-1.24;86.00;99323.48;1676861;85;25683;-78
2022/12/02 08:39:55;;;;;;;19.82;8.25;;;;;;;-1.26;85.80;99322.36;1676591;85;27363;-80
2022/12/02 08:42:21;;;;;;;20.32;8.88;;;;;;;-1.24;86.00;99332.90;1676261;85;25810;-79
2022/12/02 08:44:48;;;;;;;30.02;10.53;;;;;;;-1.20;85.96;99326.03;1676425;85;25490;-75
2022/12/02 08:47:14;;;;;;;12.78;4.75;;;;;;;-1.18;85.79;99326.11;1676292;84;25768;-76
2022/12/02 08:49:41;;;;;;;17.20;7.85;;;;;;;-1.12;85.80;99325.77;1676375;85;25668;-77
2022/12/02 08:52:07;;;;;;;18.52;8.55;;;;;;;-1.17;85.74;99325.59;1676564;85;27479;-78
2022/12/02 08:54:33;;;;;;;16.65;7.08;;;;;;;-1.21;86.00;99322.51;1676752;85;25632;-76
2022/12/02 08:57:00;;;;;;;14.90;6.75;;;;;;;-1.23;86.32;99327.81;1676517;85;25667;-78
2022/12/02 08:59:27;;;;;;;14.03;5.92;;;;;;;-1.23;86.28;99325.13;1676613;85;25648;-81
2022/12/02 09:01:53;;;;;;;16.25;7.87;;;;;;;-1.22;86.34;99329.45;1676928;85;25483;-75
2022/12/02 09:04:20;;;;;;;29.80;10.95;;;;;;;-1.21;86.30;99330.58;1676927;85;27504;-80
2022/12/02 09:06:47;;;;;;;31.42;12.03;;;;;;;-1.22;86.46;99329.45;1671304;84;25699;-80
2022/12/02 09:09:13;;;;;;;19.75;7.35;;;;;;;-1.19;86.29;99329.02;1674450;85;25669;-77
2022/12/02 09:11:39;;;;;;;14.25;5.40;;;;;;;-1.19;86.30;99330.36;1654991;86;26527;-79
2022/12/02 09:14:06;;;;;;;30.85;12.82;;;;;;;-1.21;86.28;99328.43;1674657;85;25641;-78
2022/12/02 09:16:32;;;;;;;31.25;11.90;;;;;;;-1.17;86.25;99326.94;1674683;85;27506;-77
2022/12/02 09:18:58;;;;;;;14.28;6.53;;;;;;;-1.15;86.04;99325.67;1674801;85;25613;-79
2022/12/02 09:21:25;;;;;;;22.82;10.08;;;;;;;-1.13;85.98;99320.06;1656138;86;25648;-81
2022/12/02 09:23:51;;;;;;;26.23;11.35;;;;;;;-1.11;85.88;99325.23;1653875;86;25791;-80
2022/12/02 09:26:19;;;;;;;19.35;7.55;;;;;;;-1.06;85.88;99322.17;1657037;85;25773;-79
2022/12/02 09:28:46;;;;;;;15.43;7.40;;;;;;;-1.04;85.54;99325.48;1657094;85;27549;-81
2022/12/02 09:31:12;;;;;;;12.55;4.92;;;;;;;-1.05;85.14;99324.35;1664358;85;25668;-78
2022/12/02 09:33:38;;;;;;;16.17;5.85;;;;;;;-1.15;84.93;99316.80;1663347;85;25627;-80
2022/12/02 09:36:05;;;;;;;20.12;10.60;;;;;;;-1.15;85.18;99320.29;1685502;85;26249;-81
2022/12/02 09:38:32;;;;;;;19.70;9.40;;;;;;;-1.12;85.29;99322.25;1681569;85;25518;-81
2022/12/02 09:41:00;;;;;;;30.25;11.83;;;;;;;-1.07;85.02;99329.15;1681468;85;27374;-81
2022/12/02 09:43:28;;;;;;;11.97;5.90;;;;;;;-1.06;84.87;99326.20;1681468;85;25752;-81
2022/12/02 09:45:56;;;;;;;14.10;5.62;;;;;;;-1.12;85.00;99320.91;1680901;85;25516;-80
2022/12/02 09:48:23;;;;;;;15.23;7.72;;;;;;;-1.16;85.28;99321.85;1676293;85;26130;-79
2022/12/02 09:50:50;;;;;;;13.78;6.87;;;;;;;-1.22;85.75;99319.53;1676002;85;25731;-81
2022/12/02 09:53:19;;;;;;;22.48;10.15;;;;;;;-1.19;85.89;99320.44;1673177;85;27528;-80
2022/12/02 09:55:45;;;;;;;18.40;8.18;;;;;;;-1.17;85.72;99319.70;1666437;85;25810;-81
2022/12/02 09:58:19;;;;;;;18.52;9.40;;;;;;;-1.12;85.89;99312.33;1680126;85;25771;-77
2022/12/02 10:00:46;;;;;;;14.58;8.00;;;;;;;-1.06;85.57;99315.98;1676238;85;25994;-80
2022/12/02 10:03:18;;;;;;;22.10;11.40;;;;;;;-0.99;85.48;99322.64;1676238;85;25499;-78
2022/12/02 10:05:44;;;;;;;16.65;7.75;;;;;;;-1.06;85.47;99315.45;1656801;85;27391;-75
2022/12/02 10:08:18;;;;;;;9.30;6.80;;;;;;;-1.10;85.56;99311.56;1667598;85;25633;-80
2022/12/02 10:10:45;;;;;;;15.38;7.15;;;;;;;-1.15;85.75;99313.56;1672781;85;25689;-78
2022/12/02 10:13:18;;;;;;;29.02;13.75;;;;;;;-1.19;85.88;99307.50;1673584;85;26001;-76
2022/12/02 10:15:45;;;;;;;15.93;7.33;;;;;;;-1.20;86.04;99306.70;1673771;85;25428;-76
2022/12/02 10:18:27;;;;;;;18.55;9.30;;;;;;;-1.17;85.82;99306.77;1664506;85;27539;-73
2022/12/02 10:20:53;;;;;;;13.60;6.17;;;;;;;-1.19;85.93;99302.95;1658394;86;25497;-78
2022/12/02 10:23:24;;;;;;;19.35;8.10;;;;;;;-1.26;86.06;99300.84;1662651;86;25771;-79
2022/12/02 10:26:07;;;;;;;14.15;5.67;;;;;;;-1.28;86.33;99302.92;1663479;86;26043;-80
2022/12/02 10:28:36;;;;;;;14.10;7.00;;;;;;;-1.36;86.39;99302.67;1662237;86;25659;-79
2022/12/02 10:31:21;;;;;;;21.15;9.35;;;;;;;-1.38;86.70;99300.74;1651601;86;28208;-74
2022/12/02 10:33:58;;;;;;;23.38;10.18;;;;;;;-1.39;86.77;99299.91;1657230;84;25758;-77
2022/12/02 10:36:37;;;;;;;14.23;7.15;;;;;;;-1.34;86.92;99298.42;1662617;85;25644;-75
2022/12/02 10:39:24;;;;;;;10.75;5.92;;;;;;;-1.25;86.90;99294.41;1654536;86;26049;-80
2022/12/02 10:42:08;;;;;;;19.92;8.65;;;;;;;-1.29;85.89;99299.40;1654676;86;25665;-79
2022/12/02 10:44:39;;;;;;;15.83;6.87;;;;;;;-1.29;86.12;99294.56;1654390;86;27722;-76
2022/12/02 10:47:22;;;;;;;21.02;9.68;;;;;;;-1.24;85.68;99292.56;1660333;85;25424;-80
2022/12/02 10:49:57;;;;;;;13.40;5.95;;;;;;;-1.23;85.82;99291.00;1654110;85;25481;-79
2022/12/02 10:52:37;;;;;;;22.52;9.15;;;;;;;-1.19;85.56;99290.02;1662771;85;26126;-79
2022/12/02 10:55:06;;;;;;;44.42;17.75;;;;;;;-1.19;85.56;99288.67;1664778;85;25704;-80
2022/12/02 10:57:34;;;;;;;25.68;11.70;;;;;;;-1.24;85.60;99287.98;1639341;85;27474;-79
2022/12/02 11:00:15;;;;;;;35.40;16.70;;;;;;;-1.28;85.55;99288.12;1668715;85;25693;-80
2022/12/02 11:02:52;;;;;;;21.80;8.83;;;;;;;-1.35;85.73;99280.65;1667046;85;25717;-80
2022/12/02 11:05:26;;;;;;;33.67;17.77;;;;;;;-1.43;86.08;99287.12;1663293;85;26430;-77
2022/12/02 11:08:17;;;;;;;39.08;21.10;;;;;;;-1.40;86.29;99283.99;1641587;87;25457;-80
2022/12/02 11:10:46;;;;;;;31.90;17.50;;;;;;;-1.35;86.27;99280.14;1643136;87;27461;-79
2022/12/02 11:13:18;;;;;;;27.00;14.95;;;;;;;-1.29;86.00;99279.77;1643014;86;25850;-78
2022/12/02 11:15:51;;;;;;;29.45;15.03;;;;;;;-1.22;85.89;99277.01;1642896;87;25460;-78
2022/12/02 11:18:32;;;;;;;41.73;19.40;;;;;;;-1.18;85.70;99284.42;1643397;87;26050;-77
2022/12/02 11:21:09;;;;;;;17.60;8.95;;;;;;;-1.11;85.14;99275.47;1643354;87;25674;-79
2022/12/02 11:23:36;;;;;;;28.70;11.15;;;;;;;-1.19;85.02;99267.16;1643178;87;27492;-78
2022/12/02 11:26:13;;;;;;;25.77;10.88;;;;;;;-1.27;85.26;99277.16;1643030;87;25708;-73
2022/12/02 11:28:50;;;;;;;166.37;43.90;;;;;;;-1.24;85.32;99270.50;1643154;87;25460;-77
2022/12/02 11:31:24;;;;;;;37.88;14.90;;;;;;;-1.24;85.41;99271.84;1628869;87;26727;-77
2022/12/02 11:34:00;;;;;;;21.42;10.05;;;;;;;-1.21;85.46;99271.95;1643204;87;25604;-79
2022/12/02 11:36:26;;;;;;;44.23;14.73;;;;;;;-1.23;85.13;99273.52;1643036;87;26068;-79
2022/12/02 11:39:00;;;;;;;116.25;33.45;;;;;;;-1.24;85.27;99271.05;1643249;87;25729;-77
2022/12/02 11:41:49;;;;;;;69.37;20.37;;;;;;;-1.21;85.38;99261.99;1643044;87;25544;-80